sensor_id;sensor_type;location;lat;lon;timestamp;pressure;altitude;pressure_sealevel;temperature;humidity
10978;BME280;5542;48.272;10.794;2022-12-10T00:00:04;94373.34;;;1.03;93.74
10978;BME280;5542;48.272;10.794;2022-12-10T00:02:32;94363.59;;;0.92;93.65
10978;BME280;5542;48.272;10.794;2022-12-10T00:04:59;94366.41;;;0.84;94.50
10978;BME280;5542;48.272;10.794;2022-12-10T00:07:26;94371.16;;;0.81;94.49
10978;BME280;5542;48.272;10.794;2022-12-10T00:09:52;94371.38;;;0.79;94.27
10978;BME280;5542;48.272;10.794;2022-12-10T00:12:19;94365.03;;;0.68;95.51
10978;BME280;5542;48.272;10.794;2022-12-10T00:14:45;94369.59;;;0.66;95.58
10978;BME280;5542;48.272;10.794;2022-12-10T00:17:12;94372.19;;;0.60;95.80
10978;BME280;5542;48.272;10.794;2022-12-10T00:19:41;94373.59;;;0.49;96.90
10978;BME280;5542;48.272;10.794;2022-12-10T00:22:08;94372.97;;;0.60;96.88
10978;BME280;5542;48.272;10.794;2022-12-10T00:24:34;94370.59;;;0.72;96.77
10978;BME280;5542;48.272;10.794;2022-12-10T00:27:01;94375.75;;;0.85;96.29
10978;BME280;5542;48.272;10.794;2022-12-10T00:29:27;94374.94;;;0.98;95.44
10978;BME280;5542;48.272;10.794;2022-12-10T00:31:54;94377.31;;;1.06;95.54
10978;BME280;5542;48.272;10.794;2022-12-10T00:34:21;94374.91;;;1.11;94.91
10978;BME280;5542;48.272;10.794;2022-12-10T00:36:49;94378.09;;;1.13;94.64
10978;BME280;5542;48.272;10.794;2022-12-10T00:39:17;94382.66;;;1.18;94.24
10978;BME280;5542;48.272;10.794;2022-12-10T00:41:44;94384.28;;;1.19;94.21
10978;BME280;5542;48.272;10.794;2022-12-10T00:44:11;94383.28;;;1.20;94.26
10978;BME280;5542;48.272;10.794;2022-12-10T00:46:38;94383.06;;;1.21;93.75
10978;BME280;5542;48.272;10.794;2022-12-10T00:49:05;94382.09;;;1.16;93.50
10978;BME280;5542;48.272;10.794;2022-12-10T00:51:32;94377.31;;;1.13;93.55
10978;BME280;5542;48.272;10.794;2022-12-10T00:54:00;94390.06;;;1.08;93.43
10978;BME280;5542;48.272;10.794;2022-12-10T00:56:29;94393.06;;;1.11;93.41
10978;BME280;5542;48.272;10.794;2022-12-10T00:58:56;94389.66;;;1.11;93.30
10978;BME280;5542;48.272;10.794;2022-12-10T01:01:24;94396.03;;;1.08;93.76
10978;BME280;5542;48.272;10.794;2022-12-10T01:03:54;94387.88;;;1.05;93.22
10978;BME280;5542;48.272;10.794;2022-12-10T01:06:24;94383.91;;;1.02;93.44
10978;BME280;5542;48.272;10.794;2022-12-10T01:08:52;94387.28;;;1.02;93.73
10978;BME280;5542;48.272;10.794;2022-12-10T01:11:23;94379.72;;;1.01;93.61
10978;BME280;5542;48.272;10.794;2022-12-10T01:13:51;94385.28;;;0.98;93.81
10978;BME280;5542;48.272;10.794;2022-12-10T01:16:21;94379.94;;;0.93;93.11
10978;BME280;5542;48.272;10.794;2022-12-10T01:18:48;94393.69;;;1.00;92.69
10978;BME280;5542;48.272;10.794;2022-12-10T01:21:17;94397.69;;;0.76;93.06
10978;BME280;5542;48.272;10.794;2022-12-10T01:23:46;94395.88;;;0.76;93.61
10978;BME280;5542;48.272;10.794;2022-12-10T01:26:17;94401.66;;;0.79;94.11
10978;BME280;5542;48.272;10.794;2022-12-10T01:28:45;94400.03;;;0.84;94.37
10978;BME280;5542;48.272;10.794;2022-12-10T01:31:13;94397.28;;;0.86;94.33
10978;BME280;5542;48.272;10.794;2022-12-10T01:33:41;94395.25;;;0.88;94.14
10978;BME280;5542;48.272;10.794;2022-12-10T01:36:10;94395.06;;;0.89;94.26
10978;BME280;5542;48.272;10.794;2022-12-10T01:38:38;94394.47;;;0.94;94.02
10978;BME280;5542;48.272;10.794;2022-12-10T01:41:06;94398.25;;;0.98;94.37
10978;BME280;5542;48.272;10.794;2022-12-10T01:46:32;94397.03;;;1.07;93.95
10978;BME280;5542;48.272;10.794;2022-12-10T01:49:01;94396.44;;;1.05;93.70
10978;BME280;5542;48.272;10.794;2022-12-10T01:51:31;94403.22;;;1.06;93.00
10978;BME280;5542;48.272;10.794;2022-12-10T01:53:59;94404.22;;;0.98;93.01
10978;BME280;5542;48.272;10.794;2022-12-10T01:56:26;94400.06;;;0.91;93.36
10978;BME280;5542;48.272;10.794;2022-12-10T01:58:55;94408.63;;;0.91;93.40
10978;BME280;5542;48.272;10.794;2022-12-10T02:01:28;94405.63;;;0.88;93.44
10978;BME280;5542;48.272;10.794;2022-12-10T02:04:05;94408.03;;;0.76;93.76
10978;BME280;5542;48.272;10.794;2022-12-10T02:06:44;94405.63;;;0.74;93.91
10978;BME280;5542;48.272;10.794;2022-12-10T02:09:19;94407.63;;;0.79;93.74
10978;BME280;5542;48.272;10.794;2022-12-10T02:11:51;94400.25;;;0.83;93.42
10978;BME280;5542;48.272;10.794;2022-12-10T02:14:29;94404.03;;;0.73;93.44
10978;BME280;5542;48.272;10.794;2022-12-10T02:16:58;94407.03;;;0.64;94.36
10978;BME280;5542;48.272;10.794;2022-12-10T02:19:42;94403.84;;;0.48;94.75
10978;BME280;5542;48.272;10.794;2022-12-10T02:22:13;94400.84;;;0.51;95.05
10978;BME280;5542;48.272;10.794;2022-12-10T02:24:42;94400.03;;;0.51;94.41
10978;BME280;5542;48.272;10.794;2022-12-10T02:27:13;94392.50;;;0.43;95.32
10978;BME280;5542;48.272;10.794;2022-12-10T02:29:44;94392.06;;;0.33;95.87
10978;BME280;5542;48.272;10.794;2022-12-10T02:32:15;94380.53;;;0.29;96.56
10978;BME280;5542;48.272;10.794;2022-12-10T02:34:47;94383.09;;;0.22;97.30
10978;BME280;5542;48.272;10.794;2022-12-10T02:37:18;94373.75;;;0.28;97.75
10978;BME280;5542;48.272;10.794;2022-12-10T02:39:49;94368.41;;;0.36;96.84
10978;BME280;5542;48.272;10.794;2022-12-10T02:42:18;94374.56;;;0.35;96.21
10978;BME280;5542;48.272;10.794;2022-12-10T02:44:48;94363.81;;;0.38;96.46
10978;BME280;5542;48.272;10.794;2022-12-10T02:47:16;94359.44;;;0.45;95.73
10978;BME280;5542;48.272;10.794;2022-12-10T02:49:46;94369.75;;;0.18;96.24
10978;BME280;5542;48.272;10.794;2022-12-10T02:52:14;94370.16;;;0.09;97.55
10978;BME280;5542;48.272;10.794;2022-12-10T02:54:45;94373.16;;;0.19;98.32
10978;BME280;5542;48.272;10.794;2022-12-10T02:57:25;94361.44;;;0.30;97.52
10978;BME280;5542;48.272;10.794;2022-12-10T03:00:03;94369.41;;;0.35;97.50
10978;BME280;5542;48.272;10.794;2022-12-10T03:02:37;94367.00;;;0.46;97.30
10978;BME280;5542;48.272;10.794;2022-12-10T03:05:12;94364.25;;;0.48;97.04
10978;BME280;5542;48.272;10.794;2022-12-10T03:07:44;94378.56;;;0.57;96.90
10978;BME280;5542;48.272;10.794;2022-12-10T03:10:19;94383.72;;;0.64;96.42
10978;BME280;5542;48.272;10.794;2022-12-10T03:12:51;94385.72;;;0.55;96.13
10978;BME280;5542;48.272;10.794;2022-12-10T03:15:24;94382.53;;;0.46;95.90
10978;BME280;5542;48.272;10.794;2022-12-10T03:17:52;94368.22;;;0.44;95.79
10978;BME280;5542;48.272;10.794;2022-12-10T03:20:21;94369.41;;;0.48;95.14
10978;BME280;5542;48.272;10.794;2022-12-10T03:22:50;94363.03;;;0.31;95.60
10978;BME280;5542;48.272;10.794;2022-12-10T03:25:21;94362.63;;;0.27;96.03
10978;BME280;5542;48.272;10.794;2022-12-10T03:27:53;94371.41;;;0.39;96.60
10978;BME280;5542;48.272;10.794;2022-12-10T03:30:22;94369.00;;;0.51;96.75
10978;BME280;5542;48.272;10.794;2022-12-10T03:32:49;94371.78;;;0.56;96.24
10978;BME280;5542;48.272;10.794;2022-12-10T03:35:17;94378.16;;;0.60;96.18
10978;BME280;5542;48.272;10.794;2022-12-10T03:37:45;94382.94;;;0.76;95.38
10978;BME280;5542;48.272;10.794;2022-12-10T03:40:13;94389.28;;;0.81;94.88
10978;BME280;5542;48.272;10.794;2022-12-10T03:42:40;94383.94;;;0.69;94.16
10978;BME280;5542;48.272;10.794;2022-12-10T03:45:07;94395.06;;;0.69;94.30
10978;BME280;5542;48.272;10.794;2022-12-10T03:47:35;94394.28;;;0.69;94.30
10978;BME280;5542;48.272;10.794;2022-12-10T03:50:02;94399.88;;;0.72;94.58
10978;BME280;5542;48.272;10.794;2022-12-10T03:52:29;94393.47;;;0.75;94.43
10978;BME280;5542;48.272;10.794;2022-12-10T03:54:56;94398.06;;;0.80;93.64
10978;BME280;5542;48.272;10.794;2022-12-10T03:57:22;94393.69;;;0.73;93.07
10978;BME280;5542;48.272;10.794;2022-12-10T03:59:49;94387.91;;;0.58;92.84
10978;BME280;5542;48.272;10.794;2022-12-10T04:02:16;94384.09;;;0.47;92.69
10978;BME280;5542;48.272;10.794;2022-12-10T04:04:44;94383.34;;;0.34;92.17
10978;BME280;5542;48.272;10.794;2022-12-10T04:07:11;94387.09;;;0.31;92.44
10978;BME280;5542;48.272;10.794;2022-12-10T04:09:38;94387.47;;;0.21;93.47
10978;BME280;5542;48.272;10.794;2022-12-10T04:12:05;94386.69;;;0.21;93.36
10978;BME280;5542;48.272;10.794;2022-12-10T04:14:31;94377.72;;;0.10;94.30
10978;BME280;5542;48.272;10.794;2022-12-10T04:17:16;94381.28;;;0.09;94.39
10978;BME280;5542;48.272;10.794;2022-12-10T04:19:44;94387.66;;;0.00;94.89
10978;BME280;5542;48.272;10.794;2022-12-10T04:22:10;94388.03;;;0.04;95.41
10978;BME280;5542;48.272;10.794;2022-12-10T04:24:55;94384.09;;;0.21;95.59
10978;BME280;5542;48.272;10.794;2022-12-10T04:27:39;94384.50;;;0.38;94.82
10978;BME280;5542;48.272;10.794;2022-12-10T04:30:09;94390.50;;;0.45;94.62
10978;BME280;5542;48.272;10.794;2022-12-10T04:32:36;94383.94;;;0.49;94.62
10978;BME280;5542;48.272;10.794;2022-12-10T04:35:05;94388.88;;;0.37;94.34
10978;BME280;5542;48.272;10.794;2022-12-10T04:37:32;94384.53;;;0.44;94.70
10978;BME280;5542;48.272;10.794;2022-12-10T04:39:58;94384.94;;;0.48;94.31
10978;BME280;5542;48.272;10.794;2022-12-10T04:42:25;94394.28;;;0.49;94.03
10978;BME280;5542;48.272;10.794;2022-12-10T04:44:51;94391.69;;;0.49;93.74
10978;BME280;5542;48.272;10.794;2022-12-10T04:47:18;94397.47;;;0.58;93.60
10978;BME280;5542;48.272;10.794;2022-12-10T04:49:45;94402.06;;;0.62;93.69
10978;BME280;5542;48.272;10.794;2022-12-10T04:52:14;94404.22;;;0.65;93.36
10978;BME280;5542;48.272;10.794;2022-12-10T04:54:42;94406.84;;;0.72;93.50
10978;BME280;5542;48.272;10.794;2022-12-10T04:57:10;94404.22;;;0.79;93.39
10978;BME280;5542;48.272;10.794;2022-12-10T04:59:36;94408.22;;;0.81;93.23
10978;BME280;5542;48.272;10.794;2022-12-10T05:02:03;94406.81;;;0.85;92.91
10978;BME280;5542;48.272;10.794;2022-12-10T05:04:30;94396.88;;;0.69;92.32
10978;BME280;5542;48.272;10.794;2022-12-10T05:06:57;94396.84;;;0.75;90.92
10978;BME280;5542;48.272;10.794;2022-12-10T05:09:25;94394.69;;;0.59;90.31
10978;BME280;5542;48.272;10.794;2022-12-10T05:11:51;94408.00;;;0.56;91.15
10978;BME280;5542;48.272;10.794;2022-12-10T05:14:18;94406.41;;;0.48;91.80
10978;BME280;5542;48.272;10.794;2022-12-10T05:16:44;94392.28;;;0.51;92.28
10978;BME280;5542;48.272;10.794;2022-12-10T05:19:12;94386.31;;;0.50;92.09
10978;BME280;5542;48.272;10.794;2022-12-10T05:21:38;94394.06;;;0.37;92.50
10978;BME280;5542;48.272;10.794;2022-12-10T05:24:24;94383.53;;;0.39;93.16
10978;BME280;5542;48.272;10.794;2022-12-10T05:26:51;94378.38;;;0.39;93.15
10978;BME280;5542;48.272;10.794;2022-12-10T05:29:18;94378.94;;;0.41;93.16
10978;BME280;5542;48.272;10.794;2022-12-10T05:31:45;94367.41;;;0.30;93.84
10978;BME280;5542;48.272;10.794;2022-12-10T05:34:12;94366.63;;;0.49;93.76
10978;BME280;5542;48.272;10.794;2022-12-10T05:36:39;94365.59;;;0.37;93.92
10978;BME280;5542;48.272;10.794;2022-12-10T05:39:07;94365.78;;;0.22;94.31
10978;BME280;5542;48.272;10.794;2022-12-10T05:41:37;94373.38;;;0.24;93.55
10978;BME280;5542;48.272;10.794;2022-12-10T05:44:05;94378.91;;;0.08;94.89
10978;BME280;5542;48.272;10.794;2022-12-10T05:46:33;94382.09;;;0.16;95.08
10978;BME280;5542;48.272;10.794;2022-12-10T05:49:02;94382.09;;;0.16;94.61
10978;BME280;5542;48.272;10.794;2022-12-10T05:51:32;94380.09;;;0.05;94.99
10978;BME280;5542;48.272;10.794;2022-12-10T05:54:00;94384.91;;;0.15;95.12
10978;BME280;5542;48.272;10.794;2022-12-10T05:56:28;94389.28;;;0.14;95.01
10978;BME280;5542;48.272;10.794;2022-12-10T05:58:59;94390.44;;;0.12;94.71
10978;BME280;5542;48.272;10.794;2022-12-10T06:01:28;94393.06;;;0.32;93.37
10978;BME280;5542;48.272;10.794;2022-12-10T06:03:57;94391.66;;;0.16;94.02
10978;BME280;5542;48.272;10.794;2022-12-10T06:06:25;94396.81;;;0.16;94.10
10978;BME280;5542;48.272;10.794;2022-12-10T06:08:52;94391.44;;;0.17;94.18
10978;BME280;5542;48.272;10.794;2022-12-10T06:11:19;94394.44;;;0.14;94.42
10978;BME280;5542;48.272;10.794;2022-12-10T06:13:47;94387.28;;;0.16;93.07
10978;BME280;5542;48.272;10.794;2022-12-10T06:16:15;94393.63;;;0.07;94.10
10978;BME280;5542;48.272;10.794;2022-12-10T06:18:42;94403.75;;;0.09;93.82
10978;BME280;5542;48.272;10.794;2022-12-10T06:21:11;94412.47;;;-0.06;94.74
10978;BME280;5542;48.272;10.794;2022-12-10T06:23:38;94415.47;;;0.05;95.35
10978;BME280;5542;48.272;10.794;2022-12-10T06:26:06;94422.47;;;0.11;95.85
10978;BME280;5542;48.272;10.794;2022-12-10T06:28:34;94418.09;;;0.11;95.80
10978;BME280;5542;48.272;10.794;2022-12-10T06:31:01;94411.56;;;0.29;95.87
10978;BME280;5542;48.272;10.794;2022-12-10T06:33:29;94416.56;;;0.50;94.21
10978;BME280;5542;48.272;10.794;2022-12-10T06:35:56;94418.75;;;0.40;93.56
10978;BME280;5542;48.272;10.794;2022-12-10T06:38:22;94425.13;;;0.50;93.67
10978;BME280;5542;48.272;10.794;2022-12-10T06:40:49;94434.88;;;0.55;93.98
10978;BME280;5542;48.272;10.794;2022-12-10T06:43:16;94438.47;;;0.61;93.62
10978;BME280;5542;48.272;10.794;2022-12-10T06:45:43;94441.44;;;0.71;93.09
10978;BME280;5542;48.272;10.794;2022-12-10T06:48:09;94439.25;;;0.74;92.91
10978;BME280;5542;48.272;10.794;2022-12-10T06:50:37;94444.25;;;0.83;92.45
10978;BME280;5542;48.272;10.794;2022-12-10T06:53:04;94442.66;;;0.82;92.38
10978;BME280;5542;48.272;10.794;2022-12-10T06:55:31;94438.47;;;0.81;92.08
10978;BME280;5542;48.272;10.794;2022-12-10T06:57:57;94456.19;;;0.77;91.82
10978;BME280;5542;48.272;10.794;2022-12-10T07:00:24;94447.44;;;0.71;91.53
10978;BME280;5542;48.272;10.794;2022-12-10T07:02:50;94441.84;;;0.61;91.78
10978;BME280;5542;48.272;10.794;2022-12-10T07:05:17;94426.94;;;0.63;91.83
10978;BME280;5542;48.272;10.794;2022-12-10T07:07:45;94432.66;;;0.52;92.08
10978;BME280;5542;48.272;10.794;2022-12-10T07:10:11;94432.69;;;0.59;91.96
10978;BME280;5542;48.272;10.794;2022-12-10T07:12:38;94438.25;;;0.56;91.37
10978;BME280;5542;48.272;10.794;2022-12-10T07:15:05;94440.44;;;0.65;91.12
10978;BME280;5542;48.272;10.794;2022-12-10T07:17:32;94450.22;;;0.63;91.36
10978;BME280;5542;48.272;10.794;2022-12-10T07:19:59;94450.63;;;0.67;91.41
10978;BME280;5542;48.272;10.794;2022-12-10T07:22:25;94455.22;;;0.71;91.53
10978;BME280;5542;48.272;10.794;2022-12-10T07:24:53;94464.75;;;0.77;91.64
10978;BME280;5542;48.272;10.794;2022-12-10T07:27:20;94468.72;;;0.80;91.48
10978;BME280;5542;48.272;10.794;2022-12-10T07:29:46;94465.94;;;0.88;91.67
10978;BME280;5542;48.272;10.794;2022-12-10T07:32:13;94469.75;;;0.92;91.29
10978;BME280;5542;48.272;10.794;2022-12-10T07:34:40;94465.94;;;0.88;90.75
10978;BME280;5542;48.272;10.794;2022-12-10T07:37:06;94462.59;;;0.81;90.21
10978;BME280;5542;48.272;10.794;2022-12-10T07:39:33;94460.16;;;0.66;89.82
10978;BME280;5542;48.272;10.794;2022-12-10T07:42:01;94457.78;;;0.58;90.59
10978;BME280;5542;48.272;10.794;2022-12-10T07:44:28;94459.75;;;0.43;90.33
10978;BME280;5542;48.272;10.794;2022-12-10T07:46:55;94456.16;;;0.44;90.66
10978;BME280;5542;48.272;10.794;2022-12-10T07:49:22;94462.34;;;0.49;90.81
10978;BME280;5542;48.272;10.794;2022-12-10T07:51:49;94457.53;;;0.40;91.21
10978;BME280;5542;48.272;10.794;2022-12-10T07:54:17;94463.31;;;0.42;91.28
10978;BME280;5542;48.272;10.794;2022-12-10T07:56:45;94461.47;;;0.22;92.02
10978;BME280;5542;48.272;10.794;2022-12-10T07:59:13;94460.47;;;0.23;92.79
10978;BME280;5542;48.272;10.794;2022-12-10T08:01:40;94448.13;;;0.12;93.27
10978;BME280;5542;48.272;10.794;2022-12-10T08:04:06;94446.75;;;0.16;93.39
10978;BME280;5542;48.272;10.794;2022-12-10T08:06:33;94446.16;;;0.14;93.12
10978;BME280;5542;48.272;10.794;2022-12-10T08:09:00;94452.88;;;0.02;93.91
10978;BME280;5542;48.272;10.794;2022-12-10T08:11:26;94454.88;;;0.00;93.78
10978;BME280;5542;48.272;10.794;2022-12-10T08:13:54;94460.25;;;0.05;94.46
10978;BME280;5542;48.272;10.794;2022-12-10T08:16:24;94445.38;;;0.20;94.82
10978;BME280;5542;48.272;10.794;2022-12-10T08:18:51;94435.22;;;0.25;94.81
10978;BME280;5542;48.272;10.794;2022-12-10T08:21:21;94436.22;;;0.31;93.88
10978;BME280;5542;48.272;10.794;2022-12-10T08:23:48;94435.41;;;0.17;94.05
10978;BME280;5542;48.272;10.794;2022-12-10T08:26:17;94440.19;;;0.27;94.09
10978;BME280;5542;48.272;10.794;2022-12-10T08:28:44;94448.38;;;0.31;94.05
10978;BME280;5542;48.272;10.794;2022-12-10T08:31:12;94458.66;;;0.17;94.48
10978;BME280;5542;48.272;10.794;2022-12-10T08:33:41;94465.47;;;0.25;94.71
10978;BME280;5542;48.272;10.794;2022-12-10T08:36:10;94472.06;;;0.41;93.72
10978;BME280;5542;48.272;10.794;2022-12-10T08:38:39;94476.03;;;0.30;94.14
10978;BME280;5542;48.272;10.794;2022-12-10T08:41:07;94468.84;;;0.25;94.21
10978;BME280;5542;48.272;10.794;2022-12-10T08:43:34;94472.81;;;0.28;93.93
10978;BME280;5542;48.272;10.794;2022-12-10T08:46:00;94470.47;;;0.40;93.63
10978;BME280;5542;48.272;10.794;2022-12-10T08:48:27;94474.06;;;0.39;93.64
10978;BME280;5542;48.272;10.794;2022-12-10T08:50:55;94476.88;;;0.57;93.42
10978;BME280;5542;48.272;10.794;2022-12-10T08:53:22;94469.72;;;0.53;93.13
10978;BME280;5542;48.272;10.794;2022-12-10T08:55:49;94468.13;;;0.58;93.23
10978;BME280;5542;48.272;10.794;2022-12-10T08:58:17;94472.31;;;0.59;91.80
10978;BME280;5542;48.272;10.794;2022-12-10T09:00:43;94473.31;;;0.58;92.10
10978;BME280;5542;48.272;10.794;2022-12-10T09:03:10;94470.09;;;0.43;92.16
10978;BME280;5542;48.272;10.794;2022-12-10T09:05:37;94472.88;;;0.55;92.31
10978;BME280;5542;48.272;10.794;2022-12-10T09:08:05;94466.72;;;0.49;92.81
10978;BME280;5542;48.272;10.794;2022-12-10T09:10:31;94467.72;;;0.48;92.52
10978;BME280;5542;48.272;10.794;2022-12-10T09:12:58;94469.84;;;0.38;92.00
10978;BME280;5542;48.272;10.794;2022-12-10T09:15:25;94471.66;;;0.37;91.94
10978;BME280;5542;48.272;10.794;2022-12-10T09:17:51;94476.44;;;0.40;92.75
10978;BME280;5542;48.272;10.794;2022-12-10T09:20:18;94476.06;;;0.43;92.87
10978;BME280;5542;48.272;10.794;2022-12-10T09:22:45;94477.66;;;0.51;92.74
10978;BME280;5542;48.272;10.794;2022-12-10T09:25:12;94484.81;;;0.49;92.07
10978;BME280;5542;48.272;10.794;2022-12-10T09:27:40;94482.44;;;0.54;92.46
10978;BME280;5542;48.272;10.794;2022-12-10T09:30:09;94480.66;;;0.48;92.20
10978;BME280;5542;48.272;10.794;2022-12-10T09:32:36;94485.81;;;0.48;92.33
10978;BME280;5542;48.272;10.794;2022-12-10T09:35:03;94477.44;;;0.46;92.52
10978;BME280;5542;48.272;10.794;2022-12-10T09:37:30;94481.25;;;0.57;91.55
10978;BME280;5542;48.272;10.794;2022-12-10T09:39:57;94490.63;;;0.64;91.78
10978;BME280;5542;48.272;10.794;2022-12-10T09:42:34;94488.84;;;0.78;91.39
10978;BME280;5542;48.272;10.794;2022-12-10T09:45:10;94483.09;;;0.76;90.04
10978;BME280;5542;48.272;10.794;2022-12-10T09:47:47;94491.00;;;0.61;90.42
10978;BME280;5542;48.272;10.794;2022-12-10T09:50:20;94494.16;;;0.50;89.60
10978;BME280;5542;48.272;10.794;2022-12-10T09:52:51;94491.53;;;0.37;90.13
10978;BME280;5542;48.272;10.794;2022-12-10T09:55:33;94495.50;;;0.33;91.41
10978;BME280;5542;48.272;10.794;2022-12-10T09:58:04;94493.38;;;0.49;91.56
10978;BME280;5542;48.272;10.794;2022-12-10T10:00:35;94494.78;;;0.65;91.04
10978;BME280;5542;48.272;10.794;2022-12-10T10:03:03;94503.56;;;0.64;91.53
10978;BME280;5542;48.272;10.794;2022-12-10T10:05:34;94492.81;;;0.67;91.93
10978;BME280;5542;48.272;10.794;2022-12-10T10:08:03;94494.38;;;0.55;91.25
10978;BME280;5542;48.272;10.794;2022-12-10T10:10:32;94496.59;;;0.58;91.66
10978;BME280;5542;48.272;10.794;2022-12-10T10:13:09;94500.56;;;0.61;91.52
10978;BME280;5542;48.272;10.794;2022-12-10T10:15:40;94499.16;;;0.65;91.45
10978;BME280;5542;48.272;10.794;2022-12-10T10:18:13;94497.59;;;0.70;91.05
10978;BME280;5542;48.272;10.794;2022-12-10T10:20:41;94490.03;;;0.69;91.41
10978;BME280;5542;48.272;10.794;2022-12-10T10:23:12;94484.47;;;0.79;91.51
10978;BME280;5542;48.272;10.794;2022-12-10T10:25:40;94492.63;;;0.89;91.58
10978;BME280;5542;48.272;10.794;2022-12-10T10:28:12;94494.81;;;0.98;91.47
10978;BME280;5542;48.272;10.794;2022-12-10T10:30:42;94495.44;;;1.07;90.84
10978;BME280;5542;48.272;10.794;2022-12-10T10:33:11;94491.25;;;1.13;90.89
10978;BME280;5542;48.272;10.794;2022-12-10T10:35:43;94490.44;;;1.25;88.61
10978;BME280;5542;48.272;10.794;2022-12-10T10:38:16;94498.03;;;1.20;89.38
10978;BME280;5542;48.272;10.794;2022-12-10T10:40:46;94492.84;;;1.20;89.36
10978;BME280;5542;48.272;10.794;2022-12-10T10:43:19;94486.44;;;1.23;89.58
10978;BME280;5542;48.272;10.794;2022-12-10T10:45:48;94493.44;;;1.22;89.61
10978;BME280;5542;48.272;10.794;2022-12-10T10:48:17;94480.69;;;1.34;89.02
10978;BME280;5542;48.272;10.794;2022-12-10T10:50:46;94480.06;;;1.39;88.68
10978;BME280;5542;48.272;10.794;2022-12-10T10:53:29;94492.44;;;1.30;89.22
10978;BME280;5542;48.272;10.794;2022-12-10T10:55:59;94477.28;;;1.40;88.79
10978;BME280;5542;48.272;10.794;2022-12-10T10:58:32;94472.31;;;1.25;88.55
10978;BME280;5542;48.272;10.794;2022-12-10T11:01:01;94480.50;;;1.16;89.21
10978;BME280;5542;48.272;10.794;2022-12-10T11:03:30;94479.09;;;1.20;89.56
10978;BME280;5542;48.272;10.794;2022-12-10T11:05:58;94480.88;;;1.13;89.87
10978;BME280;5542;48.272;10.794;2022-12-10T11:08:29;94479.47;;;1.23;90.18
10978;BME280;5542;48.272;10.794;2022-12-10T11:11:01;94479.66;;;1.42;89.16
10978;BME280;5542;48.272;10.794;2022-12-10T11:13:30;94478.66;;;1.49;87.59
10978;BME280;5542;48.272;10.794;2022-12-10T11:16:01;94489.25;;;1.35;85.66
10978;BME280;5542;48.272;10.794;2022-12-10T11:18:38;94491.25;;;1.13;87.39
10978;BME280;5542;48.272;10.794;2022-12-10T11:21:07;94491.06;;;1.14;88.40
10978;BME280;5542;48.272;10.794;2022-12-10T11:23:43;94480.09;;;1.12;89.21
10978;BME280;5542;48.272;10.794;2022-12-10T11:26:23;94479.28;;;1.25;88.82
10978;BME280;5542;48.272;10.794;2022-12-10T11:29:04;94481.09;;;1.24;88.11
10978;BME280;5542;48.272;10.794;2022-12-10T11:31:42;94487.66;;;1.20;88.80
10978;BME280;5542;48.272;10.794;2022-12-10T11:34:17;94486.66;;;1.48;87.09
10978;BME280;5542;48.272;10.794;2022-12-10T11:36:53;94483.84;;;1.36;86.61
10978;BME280;5542;48.272;10.794;2022-12-10T11:39:47;94481.25;;;1.36;87.04
10978;BME280;5542;48.272;10.794;2022-12-10T11:42:25;94484.47;;;1.32;87.88
10978;BME280;5542;48.272;10.794;2022-12-10T11:45:02;94484.47;;;1.32;87.58
10978;BME280;5542;48.272;10.794;2022-12-10T11:47:43;94486.88;;;1.33;88.01
10978;BME280;5542;48.272;10.794;2022-12-10T11:50:20;94499.22;;;1.38;87.32
10978;BME280;5542;48.272;10.794;2022-12-10T11:53:01;94490.03;;;1.35;87.04
10978;BME280;5542;48.272;10.794;2022-12-10T11:55:36;94487.25;;;1.37;87.63
10978;BME280;5542;48.272;10.794;2022-12-10T12:01:07;94488.84;;;1.31;88.71
10978;BME280;5542;48.272;10.794;2022-12-10T12:03:58;94488.06;;;1.31;89.09
10978;BME280;5542;48.272;10.794;2022-12-10T12:06:40;94489.25;;;1.35;89.18
10978;BME280;5542;48.272;10.794;2022-12-10T12:09:21;94485.25;;;1.39;89.16
10978;BME280;5542;48.272;10.794;2022-12-10T12:11:57;94475.88;;;1.44;88.76
10978;BME280;5542;48.272;10.794;2022-12-10T12:14:30;94489.78;;;1.57;88.03
10978;BME280;5542;48.272;10.794;2022-12-10T12:17:03;94494.78;;;1.71;85.47
10978;BME280;5542;48.272;10.794;2022-12-10T12:19:35;94495.59;;;1.59;85.89
10978;BME280;5542;48.272;10.794;2022-12-10T12:22:24;94502.38;;;1.46;86.71
10978;BME280;5542;48.272;10.794;2022-12-10T12:24:54;94506.75;;;1.46;87.34
10978;BME280;5542;48.272;10.794;2022-12-10T12:27:27;94513.13;;;1.50;86.51
10978;BME280;5542;48.272;10.794;2022-12-10T12:30:05;94516.72;;;1.42;87.21
10978;BME280;5542;48.272;10.794;2022-12-10T12:32:44;94528.09;;;1.41;87.02
10978;BME280;5542;48.272;10.794;2022-12-10T12:35:17;94530.31;;;1.38;87.17
10978;BME280;5542;48.272;10.794;2022-12-10T12:37:49;94523.72;;;1.35;87.02
10978;BME280;5542;48.272;10.794;2022-12-10T12:40:25;94534.47;;;1.45;86.94
10978;BME280;5542;48.272;10.794;2022-12-10T12:42:58;94534.66;;;1.37;86.77
10978;BME280;5542;48.272;10.794;2022-12-10T12:45:31;94525.50;;;1.41;86.64
10978;BME280;5542;48.272;10.794;2022-12-10T12:48:04;94530.09;;;1.39;86.01
10978;BME280;5542;48.272;10.794;2022-12-10T12:50:42;94533.50;;;1.33;86.55
10978;BME280;5542;48.272;10.794;2022-12-10T12:53:12;94541.63;;;1.23;86.94
10978;BME280;5542;48.272;10.794;2022-12-10T12:55:46;94543.44;;;1.23;87.30
10978;BME280;5542;48.272;10.794;2022-12-10T12:58:22;94536.84;;;1.27;86.83
10978;BME280;5542;48.272;10.794;2022-12-10T13:00:55;94535.66;;;1.23;87.53
10978;BME280;5542;48.272;10.794;2022-12-10T13:03:32;94536.84;;;1.27;87.19
10978;BME280;5542;48.272;10.794;2022-12-10T13:06:17;94545.44;;;1.34;86.61
10978;BME280;5542;48.272;10.794;2022-12-10T13:08:45;94552.63;;;1.25;87.07
10978;BME280;5542;48.272;10.794;2022-12-10T13:11:30;94556.19;;;1.31;86.86
10978;BME280;5542;48.272;10.794;2022-12-10T13:14:15;94560.00;;;1.28;86.96
10978;BME280;5542;48.272;10.794;2022-12-10T13:16:49;94565.16;;;1.35;86.61
10978;BME280;5542;48.272;10.794;2022-12-10T13:19:26;94560.78;;;1.29;85.76
10978;BME280;5542;48.272;10.794;2022-12-10T13:22:04;94560.97;;;1.14;86.07
10978;BME280;5542;48.272;10.794;2022-12-10T13:24:47;94566.75;;;1.30;84.40
10978;BME280;5542;48.272;10.794;2022-12-10T13:27:19;94565.34;;;1.20;84.45
10978;BME280;5542;48.272;10.794;2022-12-10T13:29:53;94572.94;;;1.15;84.96